createdAt,value
2022-08-19T00:01:07.109Z,24.11
2022-08-19T00:06:30.716Z,23.92
2022-08-19T00:11:54.280Z,23.91
2022-08-19T00:17:16.122Z,23.74
2022-08-19T00:22:39.217Z,23.75
2022-08-19T00:28:01.071Z,23.71
2022-08-19T00:33:22.948Z,23.65
2022-08-19T00:38:44.784Z,23.57
2022-08-19T00:44:13.299Z,23.48
2022-08-19T00:49:39.022Z,23.52
2022-08-19T00:55:02.072Z,23.30
2022-08-19T01:00:26.879Z,23.31
2022-08-19T01:05:51.097Z,23.11
2022-08-19T01:11:13.255Z,23.05
2022-08-19T01:16:36.272Z,22.97
2022-08-19T01:22:30.034Z,22.98
2022-08-19T01:27:53.568Z,22.93
2022-08-19T01:33:15.752Z,22.94
2022-08-19T01:38:43.979Z,22.76
2022-08-19T01:44:17.366Z,22.89
2022-08-19T01:49:40.861Z,22.81
2022-08-19T01:55:02.888Z,22.81
2022-08-19T02:00:28.870Z,22.57
2022-08-19T02:05:56.835Z,22.36
2022-08-19T02:11:25.100Z,22.33
2022-08-19T02:16:46.948Z,22.23
2022-08-19T02:22:08.825Z,22.09
2022-08-19T02:27:30.692Z,22.21
2022-08-19T02:32:53.795Z,22.05
2022-08-19T02:38:16.199Z,22.05
2022-08-19T02:43:38.544Z,21.98
2022-08-19T02:49:03.494Z,21.90
2022-08-19T02:54:25.311Z,21.93
2022-08-19T02:59:47.184Z,21.82
2022-08-19T03:05:10.218Z,21.75
2022-08-19T03:10:33.770Z,21.87
2022-08-19T03:15:56.076Z,21.93
2022-08-19T03:21:23.276Z,21.85
2022-08-19T03:26:52.017Z,21.83
2022-08-19T03:32:19.824Z,21.90
2022-08-19T03:37:55.011Z,22.00
2022-08-19T03:43:16.861Z,22.16
2022-08-19T03:48:40.894Z,22.36
2022-08-19T03:54:06.427Z,22.65
2022-08-19T03:59:34.169Z,23.20
2022-08-19T04:04:56.089Z,23.85
2022-08-19T04:10:17.973Z,24.84
2022-08-19T04:15:44.111Z,24.79
2022-08-19T04:21:06.721Z,24.11
2022-08-19T04:26:32.761Z,25.56
2022-08-19T04:31:55.657Z,26.39
2022-08-19T04:37:17.509Z,28.10
2022-08-19T04:42:39.384Z,28.90
2022-08-19T04:48:20.002Z,29.87
2022-08-19T04:53:43.081Z,29.37
2022-08-19T04:59:04.923Z,29.61
2022-08-19T05:04:26.739Z,29.31
2022-08-19T05:09:57.882Z,30.50
2022-08-19T05:15:20.815Z,31.02
2022-08-19T05:20:42.703Z,29.23
2022-08-19T05:26:05.759Z,27.60
2022-08-19T05:31:27.603Z,27.60
2022-08-19T05:36:50.763Z,27.73
2022-08-19T05:42:13.406Z,27.37
2022-08-19T05:47:35.228Z,31.09
2022-08-19T05:52:57.395Z,34.33
2022-08-19T05:58:19.331Z,38.03
2022-08-19T06:03:46.834Z,38.81
2022-08-19T06:09:09.438Z,38.36
2022-08-19T06:14:33.755Z,35.99
2022-08-19T06:19:55.572Z,34.13
2022-08-19T06:25:17.407Z,33.68
2022-08-19T06:30:39.259Z,32.41
2022-08-19T06:36:01.087Z,33.52
2022-08-19T06:41:22.922Z,38.39
2022-08-19T06:46:45.022Z,37.82
2022-08-19T06:52:15.590Z,39.63
2022-08-19T06:57:37.431Z,41.32
2022-08-19T07:03:03.063Z,39.97
2022-08-19T07:08:29.300Z,38.08
2022-08-19T07:13:51.666Z,39.51
2022-08-19T07:25:43.416Z,35.57
2022-08-19T07:31:06.435Z,37.30
2022-08-19T07:36:29.614Z,37.65
2022-08-19T07:41:52.368Z,36.29
2022-08-19T07:47:48.140Z,36.60
2022-08-19T07:52:56.050Z,36.94
2022-08-19T07:58:21.377Z,37.44
2022-08-19T08:03:43.878Z,36.76
2022-08-19T08:09:07.011Z,36.09
2022-08-19T08:14:35.046Z,35.52
2022-08-19T08:19:57.428Z,35.24
2022-08-19T08:25:22.314Z,34.85
2022-08-19T08:30:45.464Z,35.15
2022-08-19T08:36:08.240Z,35.19
2022-08-19T08:41:56.168Z,34.79
2022-08-19T08:47:21.651Z,35.52
2022-08-19T08:52:51.279Z,33.87
2022-08-19T08:58:20.967Z,33.80
2022-08-19T09:03:44.196Z,35.54
2022-08-19T09:09:19.807Z,36.09
2022-08-19T09:15:09.842Z,35.38
2022-08-19T09:20:31.883Z,34.59
2022-08-19T09:25:53.866Z,34.26
2022-08-19T09:31:18.872Z,33.22
2022-08-19T09:36:40.650Z,32.05
2022-08-19T09:42:02.480Z,32.81
2022-08-19T09:47:24.287Z,33.52
2022-08-19T09:52:55.008Z,33.39
2022-08-19T09:58:22.356Z,34.01
2022-08-19T10:03:50.511Z,33.30
2022-08-19T10:09:12.428Z,33.50
2022-08-19T10:14:34.928Z,34.18
2022-08-19T10:19:56.729Z,33.81
2022-08-19T10:25:18.821Z,32.89
2022-08-19T10:30:41.562Z,33.01
2022-08-19T10:36:13.343Z,32.62
2022-08-19T10:41:38.221Z,32.68
2022-08-19T10:47:00.568Z,32.59
2022-08-19T10:52:25.965Z,32.59
2022-08-19T10:58:02.165Z,32.80
2022-08-19T11:03:26.089Z,33.32
2022-08-19T11:08:47.905Z,33.07
2022-08-19T11:14:11.694Z,33.08
2022-08-19T11:19:34.147Z,32.99
2022-08-19T11:24:55.971Z,32.90
2022-08-19T11:30:17.891Z,32.83
2022-08-19T11:35:41.337Z,33.02
2022-08-19T11:41:06.161Z,32.81
2022-08-19T11:46:28.046Z,32.95
2022-08-19T11:51:49.949Z,32.84
2022-08-19T11:57:12.709Z,32.67
2022-08-19T12:02:35.019Z,33.23
2022-08-19T12:07:56.939Z,33.21
2022-08-19T12:13:18.758Z,33.00
2022-08-19T12:18:42.255Z,33.11
2022-08-19T12:24:07.547Z,32.94
2022-08-19T12:29:29.989Z,32.99
2022-08-19T12:34:51.837Z,33.28
2022-08-19T12:40:16.144Z,33.37
2022-08-19T12:45:38.048Z,33.19
2022-08-19T12:51:07.508Z,33.41
2022-08-19T12:56:29.315Z,33.10
2022-08-19T13:01:51.202Z,32.98
2022-08-19T13:07:13.048Z,33.13
2022-08-19T13:12:35.447Z,33.24
2022-08-19T13:17:58.243Z,33.30
2022-08-19T13:23:20.152Z,33.15
2022-08-19T13:28:42.286Z,33.02
2022-08-19T13:34:05.196Z,33.02
2022-08-19T13:39:27.053Z,32.91
2022-08-19T13:44:48.884Z,33.06
2022-08-19T13:50:16.344Z,33.08
2022-08-19T13:55:40.055Z,33.29
2022-08-19T14:01:01.918Z,33.00
2022-08-19T14:06:23.787Z,33.15
2022-08-19T14:11:45.585Z,33.36
2022-08-19T14:17:08.370Z,33.05
2022-08-19T14:22:30.191Z,33.33
2022-08-19T14:27:52.102Z,33.27
2022-08-19T14:33:13.993Z,33.01
2022-08-19T14:38:38.961Z,32.90
2022-08-19T14:44:00.933Z,32.88
2022-08-19T14:49:22.775Z,33.06
2022-08-19T14:54:56.656Z,33.03
2022-08-19T15:00:19.348Z,32.85
2022-08-19T15:05:41.154Z,33.09
2022-08-19T15:11:03.422Z,32.98
2022-08-19T15:16:26.426Z,32.53
2022-08-19T15:21:48.258Z,32.70
2022-08-19T15:27:10.144Z,32.51
2022-08-19T15:32:31.968Z,32.45
2022-08-19T15:37:55.015Z,31.96
2022-08-19T15:43:19.217Z,31.99
2022-08-19T15:48:41.062Z,32.00
2022-08-19T15:54:06.865Z,31.70
2022-08-19T15:59:28.775Z,31.77
2022-08-19T16:04:52.316Z,31.67
2022-08-19T16:10:27.089Z,31.80
2022-08-19T16:15:49.690Z,31.59
2022-08-19T16:21:15.812Z,31.54
2022-08-19T16:26:37.715Z,31.67
2022-08-19T16:31:59.536Z,31.42
2022-08-19T16:37:23.228Z,31.25
2022-08-19T16:42:45.424Z,31.24
2022-08-19T16:48:07.324Z,31.02
2022-08-19T16:53:33.337Z,30.83
2022-08-19T16:58:55.446Z,30.69
2022-08-19T17:04:17.287Z,30.58
2022-08-19T17:09:39.100Z,30.38
2022-08-19T17:15:02.087Z,30.22
2022-08-19T17:20:23.928Z,30.12
2022-08-19T17:25:45.936Z,29.67
2022-08-19T17:31:07.935Z,29.58
2022-08-19T17:36:32.614Z,29.45
2022-08-19T17:41:54.440Z,29.24
2022-08-19T17:47:17.425Z,29.05
2022-08-19T17:52:39.671Z,28.88
2022-08-19T17:58:02.022Z,28.80
2022-08-19T18:03:25.350Z,28.76
2022-08-19T18:08:47.190Z,28.62
2022-08-19T18:14:09.014Z,28.61
2022-08-19T18:19:41.473Z,28.49
2022-08-19T18:25:08.096Z,28.48
2022-08-19T18:30:30.394Z,27.83
2022-08-19T18:35:52.467Z,28.28
2022-08-19T18:41:14.368Z,28.19
2022-08-19T18:46:36.883Z,28.15
2022-08-19T18:52:00.295Z,28.03
2022-08-19T18:57:23.226Z,27.94
2022-08-19T19:02:45.086Z,27.89
2022-08-19T19:08:06.890Z,27.66
2022-08-19T19:13:28.726Z,27.60
2022-08-19T19:18:50.842Z,27.34
2022-08-19T19:24:15.088Z,27.16
2022-08-19T19:29:37.645Z,27.20
2022-08-19T19:34:59.567Z,27.14
2022-08-19T19:40:21.769Z,27.04
2022-08-19T19:45:43.773Z,26.96
2022-08-19T19:51:05.760Z,26.90
2022-08-19T19:56:27.734Z,26.82
2022-08-19T20:01:49.766Z,26.75
2022-08-19T20:07:16.500Z,26.63
2022-08-19T20:12:38.358Z,26.60
2022-08-19T20:18:00.785Z,26.61
2022-08-19T20:23:23.490Z,26.54
2022-08-19T20:28:47.887Z,26.56
2022-08-19T20:34:20.038Z,26.43
2022-08-19T20:39:42.504Z,26.34
2022-08-19T20:45:04.990Z,26.32
2022-08-19T20:50:30.163Z,26.23
2022-08-19T20:55:53.374Z,26.21
2022-08-19T21:01:21.607Z,26.21
2022-08-19T21:06:45.306Z,26.00
2022-08-19T21:12:09.099Z,25.92
2022-08-19T21:17:30.959Z,25.83
2022-08-19T21:22:52.777Z,25.91
2022-08-19T21:28:14.620Z,25.81
2022-08-19T21:33:56.283Z,25.73
2022-08-19T21:39:18.131Z,25.74
2022-08-19T21:44:40.466Z,25.75
2022-08-19T21:50:08.679Z,25.68
2022-08-19T21:55:30.566Z,25.69
2022-08-19T22:00:52.570Z,25.64
2022-08-19T22:06:14.425Z,25.55
2022-08-19T22:11:36.281Z,25.41
2022-08-19T22:16:58.081Z,25.32
2022-08-19T22:22:28.571Z,25.22
2022-08-19T22:27:50.599Z,25.36
2022-08-19T22:33:16.483Z,25.07
2022-08-19T22:38:38.329Z,25.23
2022-08-19T22:44:00.245Z,25.10
2022-08-19T22:49:22.093Z,25.24
2022-08-19T22:54:55.839Z,25.21
2022-08-19T23:00:17.678Z,25.18
2022-08-19T23:05:40.221Z,25.22
2022-08-19T23:11:02.070Z,25.18
2022-08-19T23:16:24.041Z,25.19
2022-08-19T23:21:46.047Z,25.24
2022-08-19T23:27:07.952Z,25.22
2022-08-19T23:32:34.652Z,25.03
2022-08-19T23:37:56.572Z,25.14
2022-08-19T23:43:24.449Z,25.05
2022-08-19T23:48:47.073Z,25.03
2022-08-19T23:54:08.918Z,25.01
2022-08-19T23:59:30.732Z,25.15
